Time;durP1;ratioP1;P1;durP2;ratioP2;P2;SDS_P1;SDS_P2;PMS_P1;PMS_P2;Temp;Humidity;BMP_temperature;BMP_pressure;BME280_temperature;BME280_humidity;BME280_pressure;Samples;Min_cycle;Max_cycle;Signal;HPM_P1;HPM_P2
2022/05/26 00:00:27;;;;;;;2.65;1.17;;;22.60;53.10;;;;;;5110837;28;20047;-63
2022/05/26 00:02:52;;;;;;;2.25;0.98;;;22.60;53.10;;;;;;5090589;28;20035;-61
2022/05/26 00:05:19;;;;;;;1.42;0.90;;;22.60;53.10;;;;;;5102903;28;20127;-63
2022/05/26 00:07:44;;;;;;;0.85;0.80;;;22.60;53.20;;;;;;5092306;28;20428;-62
2022/05/26 00:10:10;;;;;;;2.53;1.08;;;22.60;53.20;;;;;;5111567;28;20039;-62
2022/05/26 00:12:36;;;;;;;1.88;1.33;;;22.60;53.20;;;;;;5110367;28;20130;-61
2022/05/26 00:15:02;;;;;;;2.42;1.20;;;22.60;53.30;;;;;;5076645;28;20053;-63
2022/05/26 00:17:28;;;;;;;3.35;1.17;;;22.60;53.30;;;;;;5108620;28;20044;-61
2022/05/26 00:19:54;;;;;;;2.05;1.10;;;22.60;53.30;;;;;;5109356;28;20475;-61
2022/05/26 00:22:20;;;;;;;3.08;1.33;;;22.50;53.30;;;;;;5103964;28;20036;-62
2022/05/26 00:24:46;;;;;;;2.03;1.17;;;22.50;53.30;;;;;;5108461;28;20040;-61
2022/05/26 00:27:12;;;;;;;3.53;1.50;;;22.50;53.40;;;;;;5110601;28;20065;-61
2022/05/26 00:29:38;;;;;;;2.90;1.17;;;22.50;53.40;;;;;;5112988;28;20047;-61
2022/05/26 00:32:04;;;;;;;2.22;1.40;;;22.50;53.40;;;;;;5109618;28;20056;-61
2022/05/26 00:34:30;;;;;;;1.67;1.35;;;22.50;53.50;;;;;;5110754;28;20115;-61
2022/05/26 00:36:56;;;;;;;2.97;1.55;;;22.50;53.40;;;;;;5100553;28;20091;-61
2022/05/26 00:39:23;;;;;;;2.95;1.45;;;22.50;53.50;;;;;;5107711;28;20070;-61
2022/05/26 00:41:53;;;;;;;3.78;1.90;;;22.50;53.50;;;;;;5109682;28;20080;-62
2022/05/26 00:44:19;;;;;;;1.67;1.37;;;22.40;53.50;;;;;;5109596;28;20031;-63
2022/05/26 00:46:48;;;;;;;1.90;1.30;;;22.50;53.60;;;;;;5109343;28;20737;-61
2022/05/26 00:49:20;;;;;;;1.90;1.50;;;22.40;53.50;;;;;;5109395;28;20799;-61
2022/05/26 00:51:46;;;;;;;2.40;1.42;;;22.40;53.60;;;;;;5081181;28;20039;-62
2022/05/26 00:54:17;;;;;;;2.50;1.50;;;22.40;53.60;;;;;;5108630;28;20039;-63
2022/05/26 00:56:58;;;;;;;;;;;22.40;53.60;;;;;;5110537;27;20059;-61
2022/05/26 00:59:27;;;;;;;;;;;22.40;53.60;;;;;;5114579;27;19923;-60
2022/05/26 01:01:53;;;;;;;2.78;1.60;;;22.40;53.70;;;;;;5098645;27;20628;-61
2022/05/26 01:04:22;;;;;;;3.30;1.92;;;22.30;53.70;;;;;;5094626;27;20041;-61
2022/05/26 01:06:51;;;;;;;2.08;1.42;;;22.40;53.80;;;;;;5107261;27;20379;-62
2022/05/26 01:09:16;;;;;;;2.28;1.30;;;22.30;53.70;;;;;;5114680;27;20538;-61
2022/05/26 01:11:43;;;;;;;2.50;1.60;;;22.40;53.90;;;;;;5115368;27;20066;-60
2022/05/26 01:14:20;;;;;;;2.22;1.63;;;22.30;53.80;;;;;;5112949;27;20043;-63
2022/05/26 01:17:21;;;;;;;2.33;1.50;;;22.30;53.80;;;;;;5108054;27;20425;-61
2022/05/26 01:20:02;;;;;;;1.90;1.70;;;22.40;53.80;;;;;;5099272;27;20402;-63
2022/05/26 01:22:46;;;;;;;3.00;1.73;;;22.30;53.80;;;;;;5104421;27;20503;-62
2022/05/26 01:25:49;;;;;;;3.50;1.85;;;22.30;53.70;;;;;;5114149;27;20048;-62
2022/05/26 01:28:33;;;;;;;2.90;1.73;;;22.30;53.70;;;;;;5113316;27;20038;-61
2022/05/26 01:31:35;;;;;;;2.78;2.00;;;22.30;53.80;;;;;;5114629;27;20051;-61
2022/05/26 01:34:25;;;;;;;3.03;1.98;;;22.30;53.70;;;;;;5110191;27;20047;-62
2022/05/26 01:37:03;;;;;;;3.83;2.00;;;22.30;53.80;;;;;;5103264;27;20074;-61
2022/05/26 01:39:44;;;;;;;2.13;1.80;;;22.30;53.80;;;;;;5113282;27;20027;-61
2022/05/26 01:42:29;;;;;;;3.45;2.03;;;22.30;53.80;;;;;;5115218;27;20386;-62
2022/05/26 01:45:05;;;;;;;2.03;1.80;;;22.30;53.80;;;;;;5110212;27;20043;-64
2022/05/26 01:48:14;;;;;;;2.53;1.63;;;22.30;53.90;;;;;;5112174;27;20035;-61
2022/05/26 01:51:02;;;;;;;2.83;2.00;;;22.30;53.90;;;;;;5107762;27;20129;-63
2022/05/26 01:53:56;;;;;;;3.58;2.00;;;22.30;53.90;;;;;;5106861;27;20562;-62
2022/05/26 01:56:48;;;;;;;3.65;2.00;;;22.20;53.80;;;;;;5091941;27;20457;-62
2022/05/26 01:59:17;;;;;;;3.15;1.80;;;22.20;53.90;;;;;;5116025;27;20517;-61
2022/05/26 02:01:47;;;;;;;2.65;1.85;;;22.20;53.90;;;;;;5105892;27;20046;-64
2022/05/26 02:04:17;;;;;;;3.15;1.80;;;22.20;54.00;;;;;;5109393;27;20046;-62
2022/05/26 02:06:51;;;;;;;2.80;2.00;;;22.20;54.00;;;;;;5100429;27;22184;-62
2022/05/26 02:09:23;;;;;;;4.68;2.30;;;22.20;54.00;;;;;;5112098;27;20397;-62
2022/05/26 02:12:05;;;;;;;4.82;2.30;;;22.20;54.00;;;;;;5112508;27;20387;-62
2022/05/26 02:14:37;;;;;;;3.63;2.22;;;22.20;54.00;;;;;;5111237;27;20043;-63
2022/05/26 02:17:42;;;;;;;3.90;2.10;;;22.20;54.00;;;;;;5112589;27;20035;-61
2022/05/26 02:20:13;;;;;;;4.05;1.98;;;22.20;54.00;;;;;;5082472;27;20027;-61
2022/05/26 02:22:41;;;;;;;;;;;22.20;54.10;;;;;;5105878;27;20050;-61
2022/05/26 02:25:16;;;;;;;4.53;2.20;;;22.20;54.10;;;;;;5111812;27;20275;-61
2022/05/26 02:27:42;;;;;;;4.20;2.13;;;22.10;54.20;;;;;;5110240;27;20048;-62
2022/05/26 02:30:08;;;;;;;4.30;2.10;;;22.10;54.30;;;;;;5114098;27;20047;-61
2022/05/26 02:32:41;;;;;;;2.58;2.13;;;22.10;54.40;;;;;;5110595;27;20124;-61
2022/05/26 02:35:20;;;;;;;3.45;2.00;;;22.10;55.10;;;;;;5110019;27;20088;-63
2022/05/26 02:37:49;;;;;;;3.47;1.95;;;22.10;54.40;;;;;;5102847;27;20044;-61
2022/05/26 02:40:15;;;;;;;3.53;2.28;;;22.10;54.40;;;;;;5113051;27;20042;-61
2022/05/26 02:42:56;;;;;;;5.18;2.28;;;22.10;54.40;;;;;;5112098;27;20464;-61
2022/05/26 02:45:40;;;;;;;4.05;2.10;;;22.10;54.50;;;;;;5094414;27;20043;-61
2022/05/26 02:48:44;;;;;;;6.18;2.50;;;22.20;54.60;;;;;;5111069;27;20381;-61
2022/05/26 02:51:12;;;;;;;4.13;2.17;;;22.10;54.50;;;;;;5109911;27;20035;-64
2022/05/26 02:53:55;;;;;;;3.25;2.10;;;22.10;54.60;;;;;;5102787;27;20039;-62
2022/05/26 02:56:41;;;;;;;4.45;2.30;;;22.10;54.60;;;;;;5108959;27;20036;-63
2022/05/26 02:59:16;;;;;;;5.55;2.65;;;22.10;54.60;;;;;;5113196;27;20108;-61
2022/05/26 03:02:11;;;;;;;6.20;2.30;;;22.10;54.70;;;;;;5109705;27;20043;-62
2022/05/26 03:04:43;;;;;;;3.25;2.33;;;22.10;54.60;;;;;;5110166;27;20035;-61
2022/05/26 03:07:18;;;;;;;4.68;2.42;;;22.10;54.80;;;;;;5105675;27;20042;-64
2022/05/26 03:09:44;;;;;;;4.43;2.10;;;22.10;54.80;;;;;;5110288;27;20036;-62
2022/05/26 03:12:27;;;;;;;5.63;2.70;;;22.10;54.80;;;;;;5110577;27;20050;-63
2022/05/26 03:14:53;;;;;;;4.25;2.28;;;22.10;54.70;;;;;;5111689;27;20058;-62
2022/05/26 03:17:19;;;;;;;4.20;2.03;;;22.10;54.80;;;;;;5112377;27;20447;-61
2022/05/26 03:19:45;;;;;;;6.60;2.38;;;22.10;54.80;;;;;;5107958;27;20039;-61
2022/05/26 03:22:10;;;;;;;5.70;2.40;;;22.00;54.70;;;;;;5110139;27;20069;-62
2022/05/26 03:24:36;;;;;;;4.28;2.45;;;22.10;54.80;;;;;;5107624;27;20043;-61
2022/05/26 03:27:02;;;;;;;5.47;2.83;;;22.00;54.90;;;;;;5110565;27;20182;-61
2022/05/26 03:29:27;;;;;;;4.43;2.58;;;22.00;54.90;;;;;;5113847;27;20035;-61
2022/05/26 03:31:53;;;;;;;5.30;2.40;;;22.00;54.90;;;;;;5109419;27;20412;-61
2022/05/26 03:42:31;;;;;;;5.63;2.70;;;22.00;55.00;;;;;;5110441;28;20047;-60
2022/05/26 03:44:58;;;;;;;5.20;2.50;;;22.00;55.00;;;;;;5110855;28;20050;-62
2022/05/26 03:47:23;;;;;;;6.40;2.78;;;22.10;55.10;;;;;;5090332;28;20039;-62
2022/05/26 03:49:49;;;;;;;4.28;2.28;;;22.00;55.00;;;;;;5109251;28;20043;-61
2022/05/26 03:52:15;;;;;;;5.78;2.33;;;22.00;55.00;;;;;;5109846;28;20031;-62
2022/05/26 03:54:41;;;;;;;5.60;2.17;;;22.10;55.00;;;;;;5105006;28;20119;-61
2022/05/26 03:57:06;;;;;;;3.72;1.85;;;22.00;55.80;;;;;;5106429;28;20031;-60
2022/05/26 03:59:33;;;;;;;7.32;2.38;;;22.00;55.10;;;;;;5097484;28;20036;-62
2022/05/26 04:01:59;;;;;;;4.05;2.20;;;22.00;55.00;;;;;;5101664;28;20031;-61
2022/05/26 04:04:25;;;;;;;4.95;2.50;;;22.00;55.00;;;;;;5104381;28;20035;-62
2022/05/26 04:06:50;;;;;;;5.32;2.30;;;22.00;54.90;;;;;;5106838;28;20046;-63
2022/05/26 04:09:16;;;;;;;5.20;2.10;;;22.00;54.50;;;;;;5108940;28;20058;-62
2022/05/26 04:11:42;;;;;;;5.28;1.95;;;22.00;54.30;;;;;;5108566;28;20693;-62
2022/05/26 04:14:07;;;;;;;5.38;2.30;;;22.00;54.00;;;;;;5111147;28;20036;-61
2022/05/26 04:16:33;;;;;;;4.57;2.45;;;21.90;53.80;;;;;;5111253;28;20158;-61
2022/05/26 04:18:58;;;;;;;5.00;2.30;;;21.90;53.80;;;;;;5109817;28;20458;-62
2022/05/26 04:21:24;;;;;;;4.57;2.15;;;21.90;53.80;;;;;;5109581;28;20075;-60
2022/05/26 04:23:49;;;;;;;5.93;2.17;;;21.90;53.90;;;;;;5110855;28;20509;-63
2022/05/26 04:26:15;;;;;;;4.75;2.25;;;21.90;53.90;;;;;;5110288;28;20432;-60
2022/05/26 04:28:41;;;;;;;3.75;1.73;;;21.80;53.70;;;;;;5109931;28;20047;-61
2022/05/26 04:31:06;;;;;;;4.82;2.00;;;21.80;53.70;;;;;;5113813;27;20436;-64
2022/05/26 04:33:33;;;;;;;3.47;1.90;;;21.80;53.70;;;;;;5111104;27;20044;-61
2022/05/26 04:36:02;;;;;;;6.70;2.42;;;21.80;53.60;;;;;;5113781;27;20106;-61
2022/05/26 04:38:28;;;;;;;5.50;2.10;;;21.80;53.60;;;;;;5114023;27;20036;-62
2022/05/26 04:41:12;;;;;;;6.15;2.33;;;21.80;53.60;;;;;;5117547;27;20088;-61
2022/05/26 04:43:38;;;;;;;5.05;2.10;;;21.80;53.50;;;;;;5115839;27;20042;-61
2022/05/26 04:46:04;;;;;;;5.20;1.85;;;21.80;53.60;;;;;;5113843;27;20050;-62
2022/05/26 04:48:29;;;;;;;4.82;2.03;;;21.80;53.60;;;;;;5112294;27;20390;-62
2022/05/26 04:50:55;;;;;;;5.85;2.10;;;21.80;53.60;;;;;;5115222;27;20374;-63
2022/05/26 04:53:21;;;;;;;5.72;2.03;;;21.80;53.50;;;;;;5112955;27;20158;-61
2022/05/26 04:55:52;;;;;;;4.80;1.92;;;21.80;53.50;;;;;;5113841;27;20444;-60
2022/05/26 04:58:18;;;;;;;2.90;1.50;;;21.80;53.50;;;;;;5110900;27;20066;-61
2022/05/26 05:00:43;;;;;;;4.97;2.30;;;21.80;53.40;;;;;;5111677;27;20492;-61
2022/05/26 05:03:09;;;;;;;3.97;1.73;;;21.80;53.40;;;;;;5112406;27;20379;-61
2022/05/26 05:05:34;;;;;;;4.78;1.90;;;21.80;53.30;;;;;;5112171;27;20763;-61
2022/05/26 05:08:00;;;;;;;5.18;1.77;;;21.80;53.30;;;;;;5089340;27;20067;-62
2022/05/26 05:10:25;;;;;;;5.38;1.85;;;21.80;53.20;;;;;;5111630;27;20051;-62
2022/05/26 05:12:54;;;;;;;2.92;1.70;;;21.80;53.20;;;;;;5112513;27;20624;-61
2022/05/26 05:15:26;;;;;;;5.18;2.10;;;21.80;53.40;;;;;;5095244;27;20047;-60
2022/05/26 05:17:51;;;;;;;3.80;1.90;;;21.80;53.20;;;;;;5113772;27;20122;-63
2022/05/26 05:20:17;;;;;;;3.15;1.85;;;21.80;53.10;;;;;;5112197;27;20536;-60
2022/05/26 05:22:55;;;;;;;4.15;2.10;;;21.80;53.20;;;;;;5114509;27;20469;-60
2022/05/26 05:25:25;;;;;;;3.30;1.50;;;21.80;53.10;;;;;;5113858;27;20039;-61
2022/05/26 05:27:59;;;;;;;3.33;1.52;;;21.80;53.10;;;;;;5111476;27;20210;-62
2022/05/26 05:30:29;;;;;;;4.60;1.70;;;21.80;53.10;;;;;;5112462;27;20039;-61
2022/05/26 05:33:01;;;;;;;4.38;1.42;;;21.80;53.10;;;;;;5112572;27;20047;-61
2022/05/26 05:35:50;;;;;;;4.43;1.77;;;21.80;53.20;;;;;;5113130;27;20031;-61
2022/05/26 05:38:16;;;;;;;3.40;1.70;;;21.80;53.20;;;;;;5067275;27;20118;-61
2022/05/26 05:40:42;;;;;;;4.40;1.73;;;21.80;53.30;;;;;;5114261;27;20035;-61
2022/05/26 05:43:08;;;;;;;3.92;1.40;;;21.80;53.20;;;;;;5113199;27;20471;-61
2022/05/26 05:45:33;;;;;;;4.30;1.50;;;21.80;53.20;;;;;;5112956;27;20474;-62
2022/05/26 05:47:59;;;;;;;5.30;1.58;;;21.70;53.10;;;;;;5111619;27;20049;-60
2022/05/26 05:50:25;;;;;;;5.40;1.73;;;21.80;53.20;;;;;;5113440;27;20376;-60
2022/05/26 05:52:51;;;;;;;4.07;1.73;;;21.70;53.10;;;;;;5114331;27;20097;-63
2022/05/26 05:55:16;;;;;;;3.95;1.40;;;21.70;53.10;;;;;;5112211;27;20039;-61
2022/05/26 05:57:42;;;;;;;4.80;1.63;;;21.70;53.10;;;;;;5115159;27;20693;-61
2022/05/26 06:00:08;;;;;;;9.25;1.80;;;21.70;53.10;;;;;;5109759;27;20067;-58
2022/05/26 06:02:34;;;;;;;6.53;1.50;;;21.70;53.30;;;;;;5106415;27;20583;-60
2022/05/26 06:05:00;;;;;;;4.18;1.48;;;21.70;53.40;;;;;;5110960;27;20036;-59
2022/05/26 06:07:26;;;;;;;6.07;1.70;;;21.70;53.40;;;;;;5074967;27;20043;-59
2022/05/26 06:09:52;;;;;;;5.25;1.90;;;21.70;53.70;;;;;;5111479;27;20039;-60
2022/05/26 06:12:17;;;;;;;5.82;1.70;;;21.70;54.00;;;;;;5113245;27;20035;-59
2022/05/26 06:14:44;;;;;;;6.68;1.45;;;21.80;54.20;;;;;;5109900;27;20028;-61
2022/05/26 06:17:11;;;;;;;3.28;1.35;;;21.80;54.30;;;;;;5108534;27;20032;-62
2022/05/26 06:19:38;;;;;;;5.53;1.40;;;21.80;54.30;;;;;;5112915;27;20047;-62
2022/05/26 06:22:12;;;;;;;3.92;1.23;;;21.80;54.00;;;;;;5093441;27;20043;-64
2022/05/26 06:24:38;;;;;;;4.70;1.35;;;21.80;54.20;;;;;;5112031;27;20040;-59
2022/05/26 06:29:49;;;;;;;4.35;1.50;;;21.80;54.20;;;;;;5111339;27;20031;-59
2022/05/26 06:29:52;;;;;;;4.88;1.98;;;21.80;54.20;;;;;;5110749;27;20131;-62
2022/05/26 06:37:52;;;;;;;4.72;1.70;;;21.80;54.30;;;;;;5105285;27;20050;-62
2022/05/26 06:40:18;;;;;;;3.40;1.48;;;21.80;54.40;;;;;;5108253;27;20049;-59
2022/05/26 06:42:45;;;;;;;4.60;1.38;;;21.80;54.30;;;;;;5108436;27;20038;-60
2022/05/26 06:45:12;;;;;;;6.28;1.40;;;21.80;54.10;;;;;;5106955;27;20051;-61
2022/05/26 06:47:38;;;;;;;4.45;0.98;;;21.80;54.20;;;;;;5112177;27;20150;-63
2022/05/26 06:50:04;;;;;;;3.28;1.05;;;21.80;54.10;;;;;;5107380;27;20166;-61
2022/05/26 06:52:30;;;;;;;3.00;1.45;;;21.80;54.00;;;;;;5105661;27;20040;-60
2022/05/26 06:54:57;;;;;;;4.57;1.08;;;21.80;53.90;;;;;;5110042;27;20035;-60
2022/05/26 06:57:22;;;;;;;2.72;1.23;;;21.80;53.80;;;;;;5110011;27;20115;-59
2022/05/26 06:59:48;;;;;;;4.22;1.13;;;21.80;53.80;;;;;;5111851;27;20472;-59
2022/05/26 07:02:14;;;;;;;3.65;0.77;;;21.80;53.90;;;;;;5105600;27;20158;-61
2022/05/26 07:04:41;;;;;;;1.40;0.90;;;21.80;54.00;;;;;;5110836;27;20542;-60
2022/05/26 07:07:07;;;;;;;2.15;0.82;;;21.80;54.20;;;;;;5091722;27;20039;-63
2022/05/26 07:09:32;;;;;;;2.42;1.02;;;21.80;54.40;;;;;;5087226;27;20046;-59
2022/05/26 07:11:58;;;;;;;2.90;0.70;;;21.80;54.50;;;;;;5107553;27;20463;-60
2022/05/26 07:14:24;;;;;;;3.40;1.20;;;21.80;54.50;;;;;;5103790;27;20511;-59
2022/05/26 07:16:50;;;;;;;3.35;0.90;;;21.80;54.60;;;;;;5106994;27;20431;-62
2022/05/26 07:19:17;;;;;;;2.67;0.77;;;21.90;54.80;;;;;;5107819;27;20043;-60
2022/05/26 07:21:45;;;;;;;3.50;0.80;;;21.80;55.00;;;;;;5108038;27;20046;-61
2022/05/26 07:24:10;;;;;;;3.88;1.17;;;21.80;55.10;;;;;;5108037;27;20043;-61
2022/05/26 07:26:36;;;;;;;3.38;0.98;;;21.90;55.20;;;;;;5105052;27;20093;-58
2022/05/26 07:29:03;;;;;;;4.45;1.17;;;21.80;55.20;;;;;;5106491;27;20069;-63
2022/05/26 07:31:28;;;;;;;2.58;0.70;;;21.90;55.30;;;;;;5106992;27;20051;-61
2022/05/26 07:33:55;;;;;;;3.17;0.95;;;21.90;56.00;;;;;;5089209;28;20050;-64
2022/05/26 07:41:56;;;;;;;4.00;0.90;;;21.90;55.50;;;;;;5107900;27;20154;-61
2022/05/26 07:44:22;;;;;;;2.85;1.00;;;21.80;55.40;;;;;;5105503;28;20394;-62
2022/05/26 07:46:48;;;;;;;1.27;0.70;;;21.90;55.30;;;;;;5105932;28;20046;-63
2022/05/26 07:49:14;;;;;;;3.67;0.90;;;21.80;55.10;;;;;;5104787;28;20042;-62
2022/05/26 07:51:39;;;;;;;3.97;0.80;;;21.90;55.10;;;;;;5107463;28;20063;-60
2022/05/26 07:54:05;;;;;;;2.55;0.80;;;21.90;55.20;;;;;;5106360;28;20051;-58
2022/05/26 07:56:33;;;;;;;2.63;0.80;;;21.90;55.20;;;;;;5104014;28;20376;-60
2022/05/26 07:58:58;;;;;;;3.85;1.00;;;21.90;55.20;;;;;;5105266;28;20066;-62
2022/05/26 08:01:24;;;;;;;4.15;1.10;;;21.80;55.30;;;;;;5107024;28;20071;-64
2022/05/26 08:03:53;;;;;;;5.30;1.05;;;21.90;55.50;;;;;;5108889;28;20038;-60
2022/05/26 08:06:19;;;;;;;4.68;1.38;;;21.90;55.50;;;;;;5114623;27;20078;-62
2022/05/26 08:08:44;;;;;;;2.47;1.20;;;21.90;55.40;;;;;;5092089;27;20047;-59
2022/05/26 08:11:10;;;;;;;3.63;0.85;;;21.80;55.90;;;;;;5112052;27;20042;-62
2022/05/26 08:13:36;;;;;;;2.70;1.00;;;21.90;55.00;;;;;;5081345;28;20047;-59
2022/05/26 08:16:03;;;;;;;7.68;1.00;;;21.80;54.90;;;;;;5108159;27;20023;-59
2022/05/26 08:18:29;;;;;;;4.00;1.10;;;21.80;55.10;;;;;;5109808;27;20047;-60
2022/05/26 08:20:55;;;;;;;5.15;0.98;;;21.90;54.90;;;;;;5109236;27;20047;-61
2022/05/26 08:23:25;;;;;;;6.25;1.05;;;21.90;54.90;;;;;;5089574;27;20054;-62
2022/05/26 08:25:51;;;;;;;3.63;1.10;;;21.80;55.30;;;;;;5109814;27;20077;-61
2022/05/26 08:28:16;;;;;;;2.63;0.82;;;21.90;55.90;;;;;;5103356;27;20196;-61
2022/05/26 08:30:42;;;;;;;2.17;1.02;;;21.90;56.50;;;;;;5107462;27;20051;-59
2022/05/26 08:33:08;;;;;;;4.40;1.13;;;21.90;56.80;;;;;;5102312;27;20047;-62
2022/05/26 08:35:33;;;;;;;3.72;1.10;;;21.90;57.50;;;;;;5111663;27;20553;-59
2022/05/26 08:37:59;;;;;;;5.57;1.30;;;21.90;57.60;;;;;;5090551;27;20154;-58
2022/05/26 08:40:35;;;;;;;2.38;0.73;;;21.90;57.60;;;;;;5109271;27;20035;-59
2022/05/26 08:43:04;;;;;;;4.95;1.00;;;21.90;57.40;;;;;;5109771;27;20095;-58
2022/05/26 08:45:35;;;;;;;6.40;1.23;;;21.90;57.10;;;;;;5111932;27;20039;-61
2022/05/26 08:48:01;;;;;;;1.63;0.75;;;21.90;56.90;;;;;;5114083;27;20047;-57
2022/05/26 08:50:32;;;;;;;2.53;0.68;;;21.90;56.70;;;;;;5110870;27;20035;-58
2022/05/26 08:53:05;;;;;;;3.78;0.95;;;21.90;56.70;;;;;;5111037;27;20051;-59
2022/05/26 08:55:32;;;;;;;3.08;1.02;;;21.90;56.80;;;;;;5115160;27;20036;-57
2022/05/26 08:58:13;;;;;;;6.88;0.70;;;21.90;56.80;;;;;;5111067;27;20092;-58
2022/05/26 09:00:41;;;;;;;2.53;0.88;;;22.00;57.00;;;;;;5111686;27;20081;-59
2022/05/26 09:03:28;;;;;;;2.95;0.90;;;22.00;57.00;;;;;;5109104;27;20043;-57
2022/05/26 09:06:15;;;;;;;2.63;0.70;;;22.00;57.00;;;;;;5107121;27;20043;-58
2022/05/26 09:14:09;;;;;;;2.47;0.63;;;22.00;57.50;;;;;;5107555;27;20061;-59
2022/05/26 09:16:41;;;;;;;4.15;1.10;;;22.00;57.50;;;;;;5103121;27;20035;-58
2022/05/26 09:19:19;;;;;;;2.70;0.80;;;22.00;57.40;;;;;;5078489;27;20078;-60
2022/05/26 09:21:48;;;;;;;4.20;0.70;;;22.00;57.50;;;;;;5111650;27;20126;-56
2022/05/26 09:24:22;;;;;;;2.42;0.57;;;22.00;57.40;;;;;;5099494;27;20136;-57
2022/05/26 09:26:58;;;;;;;1.92;1.05;;;22.00;57.30;;;;;;5045429;28;20064;-57
2022/05/26 09:29:33;;;;;;;3.17;0.88;;;22.00;57.20;;;;;;5055461;28;20041;-58
2022/05/26 09:32:01;;;;;;;4.43;0.80;;;22.00;57.20;;;;;;5055692;28;20037;-61
2022/05/26 09:34:32;;;;;;;3.55;0.90;;;22.00;57.20;;;;;;5055096;28;20198;-59
2022/05/26 09:37:00;;;;;;;;;;;22.00;57.10;;;;;;5055359;28;20036;-59
2022/05/26 09:39:34;;;;;;;1.95;0.70;;;22.00;57.00;;;;;;5056745;28;19974;-58
2022/05/26 09:42:02;;;;;;;2.22;0.77;;;22.00;57.20;;;;;;5051291;28;20033;-58
2022/05/26 09:44:34;;;;;;;1.98;0.70;;;22.00;57.10;;;;;;5038379;28;20044;-57
2022/05/26 09:47:04;;;;;;;3.15;0.65;;;22.00;57.10;;;;;;5056036;28;20090;-58
2022/05/26 09:49:37;;;;;;;3.80;1.00;;;22.00;57.00;;;;;;5056238;28;20044;-61
2022/05/26 09:52:11;;;;;;;4.18;0.60;;;22.00;57.00;;;;;;5037788;28;20396;-59
2022/05/26 09:54:36;;;;;;;1.83;0.95;;;22.00;56.90;;;;;;5056108;28;20041;-58
2022/05/26 09:57:15;;;;;;;2.80;0.50;;;22.00;56.90;;;;;;5055532;28;20432;-59
2022/05/26 09:59:42;;;;;;;2.55;0.68;;;22.00;56.80;;;;;;5054455;28;20132;-57
2022/05/26 10:02:25;;;;;;;4.75;1.02;;;22.00;56.80;;;;;;5051853;28;20040;-58
2022/05/26 10:05:04;;;;;;;4.65;0.80;;;22.00;56.60;;;;;;5050663;28;20041;-57
2022/05/26 10:08:00;;;;;;;2.35;0.80;;;22.00;56.60;;;;;;5052812;28;20048;-59
2022/05/26 10:10:55;;;;;;;2.60;0.70;;;22.00;57.20;;;;;;5038530;28;20079;-58
2022/05/26 10:14:00;;;;;;;3.28;0.80;;;22.00;56.50;;;;;;5055275;28;20076;-59
2022/05/26 10:16:41;;;;;;;4.80;1.05;;;22.00;56.50;;;;;;5055046;28;20760;-58
2022/05/26 10:19:16;;;;;;;;;;;22.00;56.50;;;;;;5053727;28;20025;-60
2022/05/26 10:21:57;;;;;;;2.53;0.70;;;22.00;56.30;;;;;;5055576;28;19924;-61
2022/05/26 10:24:52;;;;;;;2.50;0.60;;;22.00;56.50;;;;;;5056029;28;20113;-58
2022/05/26 10:27:33;;;;;;;6.00;0.85;;;22.00;56.40;;;;;;5053833;28;20040;-58
2022/05/26 10:30:17;;;;;;;;;;;22.00;56.30;;;;;;5055321;28;20060;-59
2022/05/26 10:33:00;;;;;;;1.88;0.60;;;22.00;56.20;;;;;;5055530;28;20059;-57
2022/05/26 10:35:34;;;;;;;3.67;0.80;;;22.00;56.30;;;;;;5054967;28;20053;-57
2022/05/26 10:38:28;;;;;;;3.30;0.88;;;22.00;56.30;;;;;;5054787;28;20033;-57
2022/05/26 10:41:15;;;;;;;1.88;0.85;;;22.00;56.20;;;;;;5055229;28;20396;-59
2022/05/26 10:43:49;;;;;;;3.63;1.15;;;22.00;56.30;;;;;;5024038;28;20146;-58
2022/05/26 10:46:18;;;;;;;4.43;0.90;;;22.00;56.20;;;;;;5050306;28;20036;-58
2022/05/26 10:49:06;;;;;;;3.50;0.77;;;22.00;56.20;;;;;;5036568;28;20072;-59
2022/05/26 10:51:42;;;;;;;5.53;0.93;;;22.00;56.10;;;;;;5051085;28;20047;-57
2022/05/26 10:54:14;;;;;;;2.92;1.10;;;22.00;55.80;;;;;;5053047;28;20119;-57
2022/05/26 10:56:59;;;;;;;2.72;1.10;;;22.00;55.90;;;;;;5037365;28;20040;-58
2022/05/26 10:59:27;;;;;;;3.88;1.00;;;22.00;55.70;;;;;;5025541;28;20089;-61
2022/05/26 11:02:06;;;;;;;3.20;1.02;;;22.00;55.70;;;;;;5054259;28;20053;-60
2022/05/26 11:04:40;;;;;;;5.25;1.45;;;22.00;55.60;;;;;;5055009;28;20463;-58
2022/05/26 11:07:16;;;;;;;5.68;1.58;;;22.00;55.50;;;;;;5054527;28;20400;-58
2022/05/26 11:09:55;;;;;;;5.22;1.30;;;22.00;55.50;;;;;;5055351;28;20111;-57
2022/05/26 11:12:30;;;;;;;10.60;1.30;;;22.00;55.70;;;;;;5057504;28;20551;-60
2022/05/26 11:18:00;;;;;;;2.33;1.08;;;22.00;56.10;;;;;;5056198;28;20131;-58
2022/05/26 11:20:49;;;;;;;2.80;0.80;;;22.00;55.90;;;;;;5053582;28;20143;-58
2022/05/26 11:23:17;;;;;;;4.82;1.00;;;22.00;55.80;;;;;;5045655;28;20041;-59
2022/05/26 11:26:03;;;;;;;3.15;0.93;;;22.10;56.00;;;;;;5052981;28;20164;-61
2022/05/26 11:28:39;;;;;;;3.33;1.23;;;22.00;56.00;;;;;;5052990;28;20049;-58
2022/05/26 11:36:54;;;;;;;2.75;1.00;;;22.00;56.10;;;;;;5053158;28;20106;-59
2022/05/26 11:39:39;;;;;;;2.20;0.95;;;22.00;55.90;;;;;;5054874;28;20401;-57
2022/05/26 11:42:09;;;;;;;3.40;1.00;;;22.00;55.70;;;;;;5050958;28;20032;-62
2022/05/26 11:44:56;;;;;;;2.22;0.90;;;22.00;55.70;;;;;;5050963;28;20049;-59
2022/05/26 11:47:54;;;;;;;2.20;0.90;;;22.00;55.50;;;;;;5054851;28;20043;-57
2022/05/26 11:50:23;;;;;;;4.85;1.13;;;22.00;55.50;;;;;;4999948;28;20103;-59
2022/05/26 11:52:54;;;;;;;4.05;0.90;;;22.00;55.40;;;;;;5053618;28;20121;-56
2022/05/26 11:55:44;;;;;;;2.75;0.93;;;22.00;55.40;;;;;;5053855;28;20029;-56
2022/05/26 11:58:32;;;;;;;5.82;1.00;;;22.00;55.30;;;;;;5054483;28;20047;-56
2022/05/26 12:01:22;;;;;;;1.88;0.82;;;22.00;55.30;;;;;;5051523;28;20048;-56
2022/05/26 12:04:19;;;;;;;2.63;0.80;;;22.00;55.20;;;;;;5054420;28;20079;-58
2022/05/26 12:06:59;;;;;;;3.25;1.10;;;22.00;55.20;;;;;;5052315;28;20041;-56
2022/05/26 12:09:45;;;;;;;1.87;0.90;;;22.00;55.10;;;;;;5052222;28;20090;-58
2022/05/26 12:12:16;;;;;;;1.83;0.70;;;22.00;55.20;;;;;;5052731;28;20412;-60
2022/05/26 12:14:50;;;;;;;2.50;0.90;;;22.00;55.20;;;;;;5052697;28;20128;-57
2022/05/26 12:17:31;;;;;;;1.95;0.80;;;22.00;55.20;;;;;;5053894;28;20040;-57
2022/05/26 12:20:05;;;;;;;3.05;1.23;;;22.00;55.20;;;;;;5055065;28;20068;-57
2022/05/26 12:22:31;;;;;;;2.75;1.10;;;22.00;55.10;;;;;;5052840;28;20100;-58
2022/05/26 12:25:06;;;;;;;2.15;0.80;;;22.00;55.20;;;;;;5054192;28;20485;-57
2022/05/26 12:27:54;;;;;;;3.88;1.00;;;22.00;55.10;;;;;;5054576;28;20041;-57
2022/05/26 12:30:41;;;;;;;2.28;0.80;;;22.00;55.00;;;;;;5053129;28;20029;-56
2022/05/26 12:33:19;;;;;;;1.85;0.82;;;22.00;55.00;;;;;;5036493;28;20052;-56
2022/05/26 12:36:00;;;;;;;3.22;1.08;;;22.00;55.00;;;;;;5051705;28;20059;-57
2022/05/26 12:38:49;;;;;;;3.13;0.80;;;22.00;55.00;;;;;;5051520;28;20045;-56
2022/05/26 12:41:21;;;;;;;2.72;0.82;;;22.00;55.70;;;;;;5048746;28;20164;-56
2022/05/26 12:44:11;;;;;;;2.72;0.95;;;22.00;55.00;;;;;;5045406;28;20040;-56
2022/05/26 12:47:15;;;;;;;4.25;0.80;;;22.00;54.90;;;;;;5035818;28;20084;-57
2022/05/26 12:50:20;;;;;;;3.13;1.02;;;22.00;54.90;;;;;;5052301;28;20045;-57
2022/05/26 12:52:54;;;;;;;3.40;0.85;;;22.00;54.90;;;;;;5008477;28;20056;-57
2022/05/26 12:55:38;;;;;;;2.05;0.85;;;22.00;55.00;;;;;;5054260;28;20490;-59
2022/05/26 12:58:16;;;;;;;2.53;0.90;;;22.00;54.90;;;;;;5056049;28;21046;-57
2022/05/26 13:00:48;;;;;;;2.20;0.90;;;22.00;54.90;;;;;;5053887;28;20044;-59
2022/05/26 13:03:13;;;;;;;2.30;1.00;;;22.00;54.90;;;;;;5054517;28;20044;-56
2022/05/26 13:05:52;;;;;;;3.05;0.90;;;22.00;54.80;;;;;;5055569;28;20534;-58
2022/05/26 13:08:21;;;;;;;2.65;0.70;;;22.00;54.80;;;;;;5054072;28;20059;-56
2022/05/26 13:10:52;;;;;;;4.18;1.00;;;22.00;54.70;;;;;;5057317;28;20048;-60
2022/05/26 13:13:22;;;;;;;2.78;0.80;;;22.00;54.60;;;;;;5055238;28;20088;-56
2022/05/26 13:15:48;;;;;;;4.40;1.50;;;22.00;54.60;;;;;;5055823;28;20029;-57
2022/05/26 13:18:24;;;;;;;3.20;1.20;;;22.00;54.70;;;;;;5057122;28;20036;-56
2022/05/26 13:20:50;;;;;;;2.00;0.95;;;22.00;55.10;;;;;;5055496;28;20044;-57
2022/05/26 13:23:28;;;;;;;1.90;1.02;;;22.00;55.30;;;;;;5055614;28;20115;-56
2022/05/26 13:25:54;;;;;;;2.97;1.17;;;22.00;55.40;;;;;;5056504;28;20049;-57
2022/05/26 13:28:31;;;;;;;3.33;1.00;;;22.00;56.20;;;;;;5056854;28;20040;-56
2022/05/26 13:33:57;;;;;;;2.90;0.88;;;22.10;55.40;;;;;;5021492;28;20059;-58
2022/05/26 13:36:30;;;;;;;2.63;1.15;;;22.00;55.10;;;;;;5047156;28;20049;-58
2022/05/26 13:39:02;;;;;;;1.35;0.98;;;22.00;55.00;;;;;;5038695;28;20040;-56
2022/05/26 13:41:28;;;;;;;3.28;0.90;;;22.00;55.00;;;;;;5054919;28;20052;-57
2022/05/26 13:43:56;;;;;;;3.63;1.10;;;22.00;54.80;;;;;;5018659;28;20669;-60
2022/05/26 13:46:43;;;;;;;3.92;1.13;;;22.00;54.80;;;;;;5045491;28;20033;-57
2022/05/26 13:49:31;;;;;;;2.25;0.85;;;22.00;54.80;;;;;;5054461;28;20059;-58
2022/05/26 13:52:08;;;;;;;4.20;1.00;;;22.00;54.60;;;;;;5056606;28;20662;-60